Time;durP1;ratioP1;P1;durP2;ratioP2;P2;SDS_P1;SDS_P2;PMS_P1;PMS_P2;Temp;Humidity;BMP_temperature;BMP_pressure;BME280_temperature;BME280_humidity;BME280_pressure;Samples;Min_cycle;Max_cycle;Signal;HPM_P1;HPM_P2
2022/05/23 00:00:15;;;;;;;7.17;3.97;;;;;;;-145.18;100.00;60484.78;5037635;28;20068;-66
2022/05/23 00:02:40;;;;;;;6.03;3.57;;;;;;;-145.18;100.00;60484.78;5035320;28;20501;-66
2022/05/23 00:05:06;;;;;;;10.47;3.90;;;;;;;-145.18;100.00;60484.78;5043473;28;20052;-66
2022/05/23 00:07:37;;;;;;;7.33;3.60;;;;;;;-145.18;100.00;60484.78;5036636;28;20033;-66
2022/05/23 00:10:05;;;;;;;8.18;4.05;;;;;;;-145.18;100.00;60484.78;5033457;28;20075;-66
2022/05/23 00:12:31;;;;;;;9.17;4.30;;;;;;;-145.18;100.00;60484.78;5051540;28;20036;-66
2022/05/23 00:14:56;;;;;;;8.00;4.50;;;;;;;-145.18;100.00;60484.78;5033230;28;20100;-66
2022/05/23 00:17:22;;;;;;;8.43;4.40;;;;;;;-145.18;100.00;60484.78;5033476;28;20060;-66
2022/05/23 00:19:48;;;;;;;6.90;4.13;;;;;;;-145.18;100.00;60484.78;5044973;28;20025;-66
2022/05/23 00:22:15;;;;;;;8.83;4.10;;;;;;;-145.18;100.00;60484.78;5035222;28;20013;-66
2022/05/23 00:24:41;;;;;;;7.13;3.73;;;;;;;-145.18;100.00;60484.78;5046459;28;20434;-66
2022/05/23 00:27:09;;;;;;;7.97;3.60;;;;;;;-145.18;100.00;60484.78;5046372;28;20037;-66
2022/05/23 00:29:34;;;;;;;8.53;3.93;;;;;;;-145.18;100.00;60484.78;5043107;28;20029;-66
2022/05/23 00:37:27;;;;;;;7.70;3.30;;;;;;;-145.18;100.00;60484.78;5039775;28;20032;-66
2022/05/23 00:39:53;;;;;;;7.70;2.80;;;;;;;-145.18;100.00;60484.78;5040219;28;20396;-66
2022/05/23 00:45:12;;;;;;;7.00;3.00;;;;;;;-145.18;100.00;60484.78;5048467;28;20701;-66
2022/05/23 00:47:38;;;;;;;6.00;2.90;;;;;;;-145.18;100.00;60484.78;5048788;28;20159;-66
2022/05/23 00:50:03;;;;;;;6.67;2.90;;;;;;;-145.18;100.00;60484.78;5046520;28;20116;-66
2022/05/23 00:52:34;;;;;;;6.47;2.90;;;;;;;-145.18;100.00;60484.78;5048764;28;20025;-66
2022/05/23 00:55:04;;;;;;;6.00;2.90;;;;;;;-145.18;100.00;60484.78;5040787;28;20030;-66
2022/05/23 00:57:35;;;;;;;7.17;2.60;;;;;;;-145.18;100.00;60484.78;5030249;28;20036;-66
2022/05/23 01:00:05;;;;;;;10.90;2.90;;;;;;;-145.18;100.00;60484.78;5030461;28;20029;-66
2022/05/23 01:02:31;;;;;;;4.57;2.47;;;;;;;-145.18;100.00;60484.78;5046416;28;20040;-66
2022/05/23 01:04:57;;;;;;;5.17;2.50;;;;;;;-145.18;100.00;60484.78;5034953;28;20022;-66
2022/05/23 01:07:22;;;;;;;6.83;2.60;;;;;;;-145.18;100.00;60484.78;5036992;28;20036;-66
2022/05/23 01:09:51;;;;;;;8.33;2.80;;;;;;;-145.18;100.00;60484.78;5047431;28;20029;-66
2022/05/23 01:12:17;;;;;;;8.70;2.70;;;;;;;-145.18;100.00;60484.78;5030946;28;20362;-66
2022/05/23 01:14:55;;;;;;;8.63;3.07;;;;;;;-145.18;100.00;60484.78;5030609;28;20021;-66
2022/05/23 01:17:22;;;;;;;7.53;2.80;;;;;;;-145.18;100.00;60484.78;5030445;28;20029;-66
2022/05/23 01:19:48;;;;;;;5.80;2.50;;;;;;;-145.18;100.00;60484.78;5040925;28;20083;-66
2022/05/23 01:22:21;;;;;;;7.97;3.40;;;;;;;-145.18;100.00;60484.78;5049058;28;20028;-66
2022/05/23 01:24:59;;;;;;;5.57;3.00;;;;;;;-145.18;100.00;60484.78;5044146;28;20032;-66
2022/05/23 01:27:28;;;;;;;5.87;2.93;;;;;;;-145.18;100.00;60484.78;5043660;28;20029;-66
2022/05/23 01:29:54;;;;;;;6.00;2.70;;;;;;;-145.18;100.00;60484.78;5044191;28;20282;-66
2022/05/23 01:32:19;;;;;;;7.17;2.97;;;;;;;-145.18;100.00;60484.78;5029922;28;20158;-66
2022/05/23 01:34:45;;;;;;;5.97;2.70;;;;;;;-145.18;100.00;60484.78;5036551;28;20033;-66
2022/05/23 01:37:10;;;;;;;7.17;3.17;;;;;;;-145.18;100.00;60484.78;5030165;28;20040;-66
2022/05/23 01:39:36;;;;;;;5.57;2.40;;;;;;;-145.18;100.00;60484.78;5030747;28;20482;-66
2022/05/23 01:42:01;;;;;;;6.60;2.80;;;;;;;-145.18;100.00;60484.78;5032472;28;20029;-66
2022/05/23 01:44:28;;;;;;;6.47;2.90;;;;;;;-145.18;100.00;60484.78;5041036;28;20043;-66
2022/05/23 01:46:53;;;;;;;10.60;2.87;;;;;;;-145.18;100.00;60484.78;5039309;28;20090;-66
2022/05/23 01:49:19;;;;;;;5.70;2.83;;;;;;;-145.18;100.00;60484.78;5037510;28;20029;-66
2022/05/23 01:51:45;;;;;;;6.73;3.10;;;;;;;-145.18;100.00;60484.78;5048637;28;20036;-66
2022/05/23 01:54:12;;;;;;;7.03;2.90;;;;;;;-145.18;100.00;60484.78;5031329;28;20037;-66
2022/05/23 01:56:38;;;;;;;5.70;2.90;;;;;;;-145.18;100.00;60484.78;5041020;28;20029;-66
2022/05/23 02:01:47;;;;;;;6.87;3.37;;;;;;;-145.18;100.00;60484.78;5039032;28;20039;-66
2022/05/23 02:04:12;;;;;;;6.47;3.03;;;;;;;-145.18;100.00;60484.78;5041905;28;20029;-66
2022/05/23 02:06:38;;;;;;;6.67;3.20;;;;;;;-145.18;100.00;60484.78;5046652;28;20029;-66
2022/05/23 02:09:04;;;;;;;8.23;3.33;;;;;;;-145.18;100.00;60484.78;5030439;28;20500;-66
2022/05/23 02:11:29;;;;;;;6.57;3.53;;;;;;;-145.18;100.00;60484.78;5041148;28;20512;-66
2022/05/23 02:13:54;;;;;;;6.73;3.47;;;;;;;-145.18;100.00;60484.78;5032963;28;20120;-66
2022/05/23 02:16:22;;;;;;;8.47;3.70;;;;;;;-145.18;100.00;60484.78;5031510;28;20040;-66
2022/05/23 02:18:47;;;;;;;6.63;3.63;;;;;;;-145.18;100.00;60484.78;5029194;28;20168;-66
2022/05/23 02:21:13;;;;;;;9.30;3.50;;;;;;;-145.18;100.00;60484.78;5038706;28;20043;-66
2022/05/23 02:23:38;;;;;;;9.30;3.30;;;;;;;-145.18;100.00;60484.78;5046606;28;20044;-66
2022/05/23 02:26:04;;;;;;;8.20;3.57;;;;;;;-145.18;100.00;60484.78;5031979;28;20041;-66
2022/05/23 02:28:30;;;;;;;6.87;3.30;;;;;;;-145.18;100.00;60484.78;5041005;28;20393;-66
2022/05/23 02:30:55;;;;;;;7.90;3.10;;;;;;;-145.18;100.00;60484.78;5034673;28;20033;-66
2022/05/23 02:33:21;;;;;;;9.57;3.50;;;;;;;-145.18;100.00;60484.78;5045908;28;20060;-66
2022/05/23 02:35:49;;;;;;;7.90;3.63;;;;;;;-145.18;100.00;60484.78;5040358;28;20028;-66
2022/05/23 02:38:15;;;;;;;9.17;3.50;;;;;;;-145.18;100.00;60484.78;5041186;28;20063;-66
2022/05/23 02:40:40;;;;;;;7.70;3.53;;;;;;;-145.18;100.00;60484.78;5051812;28;20311;-66
2022/05/23 02:43:06;;;;;;;6.87;3.30;;;;;;;-145.18;100.00;60484.78;5041933;28;20038;-66
2022/05/23 02:45:32;;;;;;;7.97;3.50;;;;;;;-145.18;100.00;60484.78;5039884;28;20504;-66
2022/05/23 02:47:58;;;;;;;7.80;3.60;;;;;;;-145.18;100.00;60484.78;5036090;28;20029;-66
2022/05/23 02:50:23;;;;;;;6.83;3.63;;;;;;;-145.18;100.00;60484.78;5033822;28;20052;-66
2022/05/23 02:52:49;;;;;;;7.57;3.73;;;;;;;-145.18;100.00;60484.78;5046880;28;20121;-66
2022/05/23 02:55:14;;;;;;;7.80;3.17;;;;;;;-145.18;100.00;60484.78;5042012;28;20048;-66
2022/05/23 02:57:40;;;;;;;7.50;3.53;;;;;;;-145.18;100.00;60484.78;5034912;28;20112;-66
2022/05/23 03:00:07;;;;;;;9.37;3.30;;;;;;;-145.18;100.00;60484.78;5032247;28;20048;-66
2022/05/23 03:05:17;;;;;;;7.67;3.00;;;;;;;-145.18;100.00;60484.78;5052285;28;20044;-66
2022/05/23 03:07:42;;;;;;;6.93;3.60;;;;;;;-145.18;100.00;60484.78;5050017;28;20033;-66
2022/05/23 03:10:08;;;;;;;5.37;3.00;;;;;;;-145.18;100.00;60484.78;5048063;28;20336;-66
2022/05/23 03:12:34;;;;;;;4.77;3.00;;;;;;;-145.18;100.00;60484.78;5052281;28;20033;-66
2022/05/23 03:15:00;;;;;;;8.73;2.97;;;;;;;-145.18;100.00;60484.78;5051005;28;20025;-66
2022/05/23 03:17:26;;;;;;;5.77;2.83;;;;;;;-145.18;100.00;60484.78;5049945;28;20405;-66
2022/05/23 03:19:51;;;;;;;5.47;3.20;;;;;;;-145.18;100.00;60484.78;5042409;28;20033;-66
2022/05/23 03:27:44;;;;;;;5.37;3.03;;;;;;;-145.18;100.00;60484.78;5047500;28;20071;-67
2022/05/23 03:30:10;;;;;;;7.43;3.17;;;;;;;-145.18;100.00;60484.78;5049526;28;20075;-66
2022/05/23 03:32:36;;;;;;;5.23;2.90;;;;;;;-145.18;100.00;60484.78;5049076;28;20885;-66
2022/05/23 03:35:02;;;;;;;7.67;3.23;;;;;;;-145.18;100.00;60484.78;5049841;28;20036;-66
2022/05/23 03:37:28;;;;;;;5.87;2.90;;;;;;;-145.18;100.00;60484.78;5043477;28;20106;-66
2022/05/23 03:39:54;;;;;;;6.90;3.10;;;;;;;-145.18;100.00;60484.78;5046619;28;20033;-68
2022/05/23 03:42:19;;;;;;;7.20;3.10;;;;;;;-145.18;100.00;60484.78;5049345;28;20052;-66
2022/05/23 03:44:45;;;;;;;6.23;3.13;;;;;;;-145.18;100.00;60484.78;5044775;28;20112;-66
2022/05/23 03:47:10;;;;;;;6.47;3.33;;;;;;;-145.18;100.00;60484.78;5031093;28;20033;-66
2022/05/23 03:49:36;;;;;;;8.20;2.90;;;;;;;-145.18;100.00;60484.78;5031313;28;20033;-66
2022/05/23 03:52:02;;;;;;;6.30;3.20;;;;;;;-145.18;100.00;60484.78;5049164;28;20037;-66
2022/05/23 03:54:27;;;;;;;5.27;3.03;;;;;;;-145.18;100.00;60484.78;5047302;28;20043;-66
2022/05/23 03:57:01;;;;;;;6.63;3.17;;;;;;;-145.18;100.00;60484.78;5038550;28;20068;-66
2022/05/23 03:59:27;;;;;;;8.43;3.27;;;;;;;-145.18;100.00;60484.78;5033338;28;20075;-66
2022/05/23 04:01:56;;;;;;;8.67;3.30;;;;;;;-145.18;100.00;60484.78;5034482;28;20025;-66
2022/05/23 04:04:22;;;;;;;8.07;3.20;;;;;;;-145.18;100.00;60484.78;5029897;28;20584;-66
2022/05/23 04:06:48;;;;;;;5.40;3.00;;;;;;;-145.18;100.00;60484.78;5036984;28;20989;-67
2022/05/23 04:09:14;;;;;;;6.57;3.00;;;;;;;-145.18;100.00;60484.78;5041144;28;20025;-66
2022/05/23 04:11:39;;;;;;;7.37;3.20;;;;;;;-145.18;100.00;60484.78;5032437;28;20026;-67
2022/05/23 04:14:04;;;;;;;7.43;3.00;;;;;;;-145.18;100.00;60484.78;5038861;28;20642;-66
2022/05/23 04:16:30;;;;;;;6.93;3.17;;;;;;;-145.18;100.00;60484.78;5051108;28;20035;-66
2022/05/23 04:18:56;;;;;;;7.67;3.63;;;;;;;-145.18;100.00;60484.78;5040061;28;20040;-66
2022/05/23 04:21:22;;;;;;;8.47;3.10;;;;;;;-145.18;100.00;60484.78;5037606;28;20060;-66
2022/05/23 04:23:48;;;;;;;8.33;3.20;;;;;;;-145.18;100.00;60484.78;5039918;28;20063;-66
2022/05/23 04:26:13;;;;;;;6.23;3.03;;;;;;;-145.18;100.00;60484.78;5048250;28;20051;-66
2022/05/23 04:28:39;;;;;;;10.03;3.97;;;;;;;-145.18;100.00;60484.78;5042243;28;20151;-66
2022/05/23 04:31:06;;;;;;;7.90;3.23;;;;;;;-145.18;100.00;60484.78;5043172;28;20029;-66
2022/05/23 04:36:17;;;;;;;6.30;3.20;;;;;;;-145.18;100.00;60484.78;5042558;28;20095;-66
2022/05/23 04:38:42;;;;;;;5.73;3.20;;;;;;;-145.18;100.00;60484.78;5042168;28;20025;-66
2022/05/23 04:41:08;;;;;;;8.37;3.20;;;;;;;-145.18;100.00;60484.78;5049341;28;20489;-66
2022/05/23 04:43:34;;;;;;;8.40;3.30;;;;;;;-145.18;100.00;60484.78;5050571;28;20043;-66
2022/05/23 04:45:59;;;;;;;8.33;3.20;;;;;;;-145.18;100.00;60484.78;5044363;28;20033;-66
2022/05/23 04:51:10;;;;;;;8.57;3.10;;;;;;;-145.18;100.00;60484.78;5016789;28;20076;-66
2022/05/23 04:53:36;;;;;;;9.20;3.30;;;;;;;-145.18;100.00;60484.78;5034115;28;20064;-66
2022/05/23 04:56:01;;;;;;;7.43;3.03;;;;;;;-145.18;100.00;60484.78;5034789;28;20078;-66
2022/05/23 04:58:27;;;;;;;10.95;3.05;;;;;;;-145.18;100.00;60484.78;5029735;28;20404;-66
2022/05/23 05:00:54;;;;;;;5.88;2.70;;;;;;;-145.18;100.00;60484.78;5040230;28;20037;-66
2022/05/23 05:03:19;;;;;;;4.75;2.40;;;;;;;-145.18;100.00;60484.78;5036077;28;20039;-66
2022/05/23 05:05:46;;;;;;;6.82;2.55;;;;;;;-145.18;100.00;60484.78;5050023;28;20461;-66
2022/05/23 05:08:12;;;;;;;14.23;3.60;;;;;;;-145.18;100.00;60484.78;5036017;28;20036;-66
2022/05/23 05:10:37;;;;;;;5.38;2.45;;;;;;;-145.18;100.00;60484.78;5049126;28;20035;-66
2022/05/23 05:13:03;;;;;;;7.78;2.70;;;;;;;-145.18;100.00;60484.78;5041667;28;20104;-66
2022/05/23 05:15:29;;;;;;;6.47;2.40;;;;;;;-145.18;100.00;60484.78;5037324;28;20083;-66
2022/05/23 05:17:56;;;;;;;6.72;2.72;;;;;;;-145.18;100.00;60484.78;5041446;28;20036;-66
2022/05/23 05:20:23;;;;;;;6.78;2.75;;;;;;;-145.18;100.00;60484.78;5041852;28;20036;-66
2022/05/23 05:22:50;;;;;;;7.45;2.72;;;;;;;-145.18;100.00;60484.78;5038387;28;20033;-66
2022/05/23 05:25:17;;;;;;;6.78;3.08;;;;;;;-145.18;100.00;60484.78;5043227;28;20029;-66
2022/05/23 05:27:43;;;;;;;7.13;2.80;;;;;;;-145.18;100.00;60484.78;5034214;28;20431;-66
2022/05/23 05:30:12;;;;;;;8.20;3.10;;;;;;;-145.18;100.00;60484.78;5043666;28;20039;-66
2022/05/23 05:32:44;;;;;;;6.43;2.90;;;;;;;-145.18;100.00;60484.78;5040722;28;20405;-66
2022/05/23 05:35:15;;;;;;;6.80;2.70;;;;;;;-145.18;100.00;60484.78;5030496;28;20436;-66
2022/05/23 05:37:50;;;;;;;5.20;2.70;;;;;;;-145.18;100.00;60484.78;5033868;28;20080;-66
2022/05/23 05:40:21;;;;;;;7.38;2.90;;;;;;;-145.18;100.00;60484.78;5043797;28;20028;-66
2022/05/23 05:42:50;;;;;;;8.55;2.65;;;;;;;-145.18;100.00;60484.78;5041829;28;20033;-66
2022/05/23 05:45:29;;;;;;;5.10;2.70;;;;;;;-145.18;100.00;60484.78;5032030;28;20023;-66
2022/05/23 05:47:55;;;;;;;7.60;2.78;;;;;;;-145.18;100.00;60484.78;5039853;28;20064;-66
2022/05/23 05:50:26;;;;;;;6.38;2.67;;;;;;;-145.18;100.00;60484.78;5050066;28;20064;-66
2022/05/23 05:52:54;;;;;;;8.43;2.90;;;;;;;-145.18;100.00;60484.78;5037384;28;20488;-66
2022/05/23 05:55:20;;;;;;;6.13;2.58;;;;;;;-145.18;100.00;60484.78;5050093;28;20104;-66
2022/05/23 05:57:45;;;;;;;8.68;2.78;;;;;;;-145.18;100.00;60484.78;5050148;28;20108;-67
2022/05/23 06:00:11;;;;;;;6.30;2.72;;;;;;;-145.18;100.00;60484.78;5048283;28;20421;-67
2022/05/23 06:02:37;;;;;;;8.20;2.47;;;;;;;-145.18;100.00;60484.78;5034549;28;20048;-67
2022/05/23 06:05:03;;;;;;;6.95;3.03;;;;;;;-145.18;100.00;60484.78;5053795;28;20380;-67
2022/05/23 06:13:01;;;;;;;6.22;3.22;;;;;;;-145.18;100.00;60484.78;5033612;28;20110;-67
2022/05/23 06:15:27;;;;;;;7.63;3.15;;;;;;;-145.18;100.00;60484.78;5033564;28;20037;-67
2022/05/23 06:17:52;;;;;;;10.60;3.20;;;;;;;-145.18;100.00;60484.78;5043032;28;20080;-67
2022/05/23 06:20:19;;;;;;;10.98;3.10;;;;;;;-145.18;100.00;60484.78;5053218;28;20116;-67
2022/05/23 06:22:45;;;;;;;10.60;3.50;;;;;;;-145.18;100.00;60484.78;5053046;28;20033;-67
2022/05/23 06:25:11;;;;;;;8.10;3.30;;;;;;;-145.18;100.00;60484.78;5049754;28;20108;-67
2022/05/23 06:27:37;;;;;;;11.30;3.40;;;;;;;-145.18;100.00;60484.78;5049819;28;20039;-67
2022/05/23 06:30:06;;;;;;;8.70;3.60;;;;;;;-145.18;100.00;60484.78;5052940;28;20025;-66
2022/05/23 06:32:32;;;;;;;8.82;3.00;;;;;;;-145.18;100.00;60484.78;5053174;28;20492;-67
2022/05/23 06:34:57;;;;;;;5.32;2.90;;;;;;;-145.18;100.00;60484.78;5052613;28;20048;-67
2022/05/23 06:37:23;;;;;;;11.10;3.53;;;;;;;-145.18;100.00;60484.78;5052777;28;20036;-66
2022/05/23 06:39:49;;;;;;;7.40;2.90;;;;;;;-145.18;100.00;60484.78;5052934;28;20550;-67
2022/05/23 06:42:14;;;;;;;9.93;3.13;;;;;;;-145.18;100.00;60484.78;5053114;28;20116;-66
2022/05/23 06:44:40;;;;;;;8.25;3.33;;;;;;;-145.18;100.00;60484.78;5052876;28;20068;-67
2022/05/23 06:47:05;;;;;;;7.15;3.10;;;;;;;-145.18;100.00;60484.78;5052793;28;20028;-67
2022/05/23 06:49:31;;;;;;;6.88;3.10;;;;;;;-145.18;100.00;60484.78;5053085;28;20025;-67
2022/05/23 06:51:56;;;;;;;7.88;3.00;;;;;;;-145.18;100.00;60484.78;5051460;28;20519;-67
2022/05/23 06:54:22;;;;;;;7.75;2.92;;;;;;;-145.18;100.00;60484.78;5051391;28;20496;-67
2022/05/23 06:56:49;;;;;;;6.20;2.75;;;;;;;-145.18;100.00;60484.78;5052960;28;20469;-66
2022/05/23 06:59:15;;;;;;;6.68;2.70;;;;;;;-145.18;100.00;60484.78;5052819;28;20036;-67
2022/05/23 07:01:41;;;;;;;6.60;2.83;;;;;;;-145.18;100.00;60484.78;5052907;28;20384;-67
2022/05/23 07:04:07;;;;;;;6.68;2.72;;;;;;;-145.18;100.00;60484.78;5034641;28;20100;-67
2022/05/23 07:14:44;;;;;;;8.23;3.40;;;;;;;-145.18;100.00;60484.78;5032421;28;20064;-67
2022/05/23 07:17:09;;;;;;;8.65;3.70;;;;;;;-145.18;100.00;60484.78;5032182;28;20026;-67
2022/05/23 07:19:35;;;;;;;7.15;3.40;;;;;;;-145.18;100.00;60484.78;5032356;28;20037;-67
2022/05/23 07:22:02;;;;;;;6.35;3.10;;;;;;;-145.18;100.00;60484.78;5050726;28;20020;-67
2022/05/23 07:24:28;;;;;;;11.05;3.47;;;;;;;-145.18;100.00;60484.78;5046657;28;20421;-67
2022/05/23 07:26:54;;;;;;;8.43;3.45;;;;;;;-145.18;100.00;60484.78;5032022;28;20021;-67
2022/05/23 07:29:22;;;;;;;5.35;3.00;;;;;;;-145.18;100.00;60484.78;5041678;28;20027;-67
2022/05/23 07:31:48;;;;;;;7.30;3.05;;;;;;;-145.18;100.00;60484.78;5042893;28;20097;-67
2022/05/23 07:34:14;;;;;;;7.75;3.45;;;;;;;-145.18;100.00;60484.78;5032290;28;20021;-67
2022/05/23 07:36:40;;;;;;;9.40;3.20;;;;;;;-145.18;100.00;60484.78;5032221;28;20461;-67
2022/05/23 07:39:08;;;;;;;8.02;2.90;;;;;;;-145.18;100.00;60484.78;5032117;28;20041;-67
2022/05/23 07:41:34;;;;;;;7.88;2.88;;;;;;;-145.18;100.00;60484.78;5032072;28;20025;-67
2022/05/23 07:43:59;;;;;;;8.02;3.33;;;;;;;-145.18;100.00;60484.78;5050652;28;20031;-67
2022/05/23 07:46:25;;;;;;;6.97;2.70;;;;;;;-145.18;100.00;60484.78;5043199;28;20021;-67
2022/05/23 07:48:51;;;;;;;7.90;2.78;;;;;;;-145.18;100.00;60484.78;5031807;28;20072;-67
2022/05/23 07:51:19;;;;;;;8.32;2.85;;;;;;;-145.18;100.00;60484.78;5031762;28;20072;-67
2022/05/23 08:01:57;;;;;;;7.47;2.70;;;;;;;-145.18;100.00;60484.78;5031861;28;20132;-67
2022/05/23 08:04:22;;;;;;;7.40;2.65;;;;;;;-145.18;100.00;60484.78;5031710;28;20105;-67
2022/05/23 08:06:48;;;;;;;5.75;2.58;;;;;;;-145.18;100.00;60484.78;5033689;28;20029;-67
2022/05/23 08:09:15;;;;;;;6.82;2.45;;;;;;;-145.18;100.00;60484.78;5031543;28;20036;-67
2022/05/23 08:11:44;;;;;;;6.28;2.58;;;;;;;-145.18;100.00;60484.78;5030100;28;20021;-67
2022/05/23 08:14:11;;;;;;;6.10;2.50;;;;;;;-145.18;100.00;60484.78;5031565;28;20465;-67
2022/05/23 08:16:37;;;;;;;7.70;2.35;;;;;;;-145.18;100.00;60484.78;5038581;28;20025;-67
2022/05/23 08:19:04;;;;;;;6.45;2.83;;;;;;;-145.18;100.00;60484.78;5050875;28;20021;-67
2022/05/23 08:21:31;;;;;;;5.88;2.53;;;;;;;-145.18;100.00;60484.78;5050357;28;20021;-66
2022/05/23 08:23:57;;;;;;;11.50;2.90;;;;;;;-145.18;100.00;60484.78;5051269;28;20370;-66
2022/05/23 08:26:22;;;;;;;6.85;2.67;;;;;;;-145.18;100.00;60484.78;5050888;28;20028;-66
2022/05/23 08:28:49;;;;;;;6.82;2.67;;;;;;;-145.18;100.00;60484.78;5050924;28;20020;-67
2022/05/23 08:31:14;;;;;;;7.65;2.70;;;;;;;-145.18;100.00;60484.78;5050520;28;20156;-67
2022/05/23 08:33:39;;;;;;;7.05;2.50;;;;;;;-145.18;100.00;60484.78;5049866;28;20036;-66
2022/05/23 08:36:05;;;;;;;8.98;2.30;;;;;;;-145.18;100.00;60484.78;5050959;28;20044;-66
2022/05/23 08:38:30;;;;;;;7.22;2.60;;;;;;;-145.18;100.00;60484.78;5051075;28;20028;-66
2022/05/23 08:41:14;;;;;;;6.32;2.60;;;;;;;-145.18;100.00;60484.78;5050896;28;20025;-67
2022/05/23 08:44:14;;;;;;;8.60;3.13;;;;;;;-145.18;100.00;60484.78;5050728;28;20036;-67
2022/05/23 08:46:49;;;;;;;7.05;2.92;;;;;;;-145.18;100.00;60484.78;5050422;28;20032;-67
2022/05/23 08:49:29;;;;;;;6.50;2.65;;;;;;;-145.18;100.00;60484.78;5050751;28;20040;-67
2022/05/23 08:52:18;;;;;;;6.80;2.80;;;;;;;-145.18;100.00;60484.78;5049662;28;20473;-67
2022/05/23 08:55:04;;;;;;;6.22;2.70;;;;;;;-145.18;100.00;60484.78;5050537;28;20032;-67
2022/05/23 08:57:33;;;;;;;8.00;3.17;;;;;;;-145.18;100.00;60484.78;5050526;28;20033;-66
2022/05/23 09:00:11;;;;;;;6.05;2.60;;;;;;;-145.18;100.00;60484.78;5049905;28;20041;-67
2022/05/23 09:03:07;;;;;;;6.13;3.13;;;;;;;-145.18;100.00;60484.78;5045069;28;20536;-66
2022/05/23 09:05:36;;;;;;;6.05;2.65;;;;;;;-145.18;100.00;60484.78;5030257;28;20069;-66
2022/05/23 09:08:10;;;;;;;6.85;2.80;;;;;;;-145.18;100.00;60484.78;5041928;28;20428;-67
2022/05/23 09:10:53;;;;;;;7.45;3.20;;;;;;;-145.18;100.00;60484.78;5050580;28;20024;-67
2022/05/23 09:13:23;;;;;;;6.85;2.83;;;;;;;-145.18;100.00;60484.78;5050026;28;20385;-66
2022/05/23 09:15:52;;;;;;;6.68;2.60;;;;;;;-145.18;100.00;60484.78;5037803;28;20033;-66
2022/05/23 09:18:22;;;;;;;6.32;2.40;;;;;;;-145.18;100.00;60484.78;5030212;28;20025;-67
2022/05/23 09:20:51;;;;;;;7.90;2.30;;;;;;;-145.18;100.00;60484.78;5030262;28;20025;-66
2022/05/23 09:23:30;;;;;;;6.10;2.45;;;;;;;-145.18;100.00;60484.78;5030342;28;20474;-67
2022/05/23 09:25:57;;;;;;;6.28;2.45;;;;;;;-145.18;100.00;60484.78;5040792;28;20390;-67
2022/05/23 09:28:25;;;;;;;6.18;2.40;;;;;;;-145.18;100.00;60484.78;5050164;28;20106;-67
2022/05/23 09:31:30;;;;;;;6.20;2.40;;;;;;;-145.18;100.00;60484.78;5030729;28;20071;-67
2022/05/23 09:33:56;;;;;;;5.68;2.25;;;;;;;-145.18;100.00;60484.78;5036245;28;20125;-67
2022/05/23 09:36:33;;;;;;;8.35;2.58;;;;;;;-145.18;100.00;60484.78;5034321;28;20116;-66
2022/05/23 09:39:02;;;;;;;5.57;2.47;;;;;;;-145.18;100.00;60484.78;5034054;28;20025;-67
2022/05/23 09:50:07;;;;;;;5.57;2.25;;;;;;;-145.18;100.00;60484.78;5034116;28;20032;-67
2022/05/23 09:52:39;;;;;;;7.75;2.17;;;;;;;-145.18;100.00;60484.78;5033903;28;20060;-67
2022/05/23 09:55:08;;;;;;;9.05;2.15;;;;;;;-145.18;100.00;60484.78;5034700;28;20025;-67
2022/05/23 09:57:42;;;;;;;5.43;2.20;;;;;;;-145.18;100.00;60484.78;5034094;28;20045;-66
2022/05/23 10:00:23;;;;;;;5.72;2.05;;;;;;;-145.18;100.00;60484.78;5041112;28;20720;-67
2022/05/23 10:02:53;;;;;;;6.80;2.05;;;;;;;-145.18;100.00;60484.78;5039884;28;20027;-66
2022/05/23 10:05:30;;;;;;;7.53;2.50;;;;;;;-145.18;100.00;60484.78;5039336;28;20036;-67
2022/05/23 10:08:03;;;;;;;6.80;2.00;;;;;;;-145.18;100.00;60484.78;5038636;28;20029;-67
2022/05/23 10:10:33;;;;;;;5.03;2.20;;;;;;;-145.18;100.00;60484.78;5036654;28;20030;-67
2022/05/23 10:13:28;;;;;;;9.15;2.38;;;;;;;-145.18;100.00;60484.78;5034993;28;20044;-67
2022/05/23 10:15:59;;;;;;;5.53;2.20;;;;;;;-145.18;100.00;60484.78;5043550;28;20048;-67
2022/05/23 10:18:29;;;;;;;5.55;2.00;;;;;;;-145.18;100.00;60484.78;5037741;28;20365;-67
2022/05/23 10:20:55;;;;;;;7.15;2.00;;;;;;;-145.18;100.00;60484.78;5041343;28;20385;-67
2022/05/23 10:23:22;;;;;;;7.05;2.05;;;;;;;-145.18;100.00;60484.78;5043780;28;20116;-67
2022/05/23 10:26:08;;;;;;;8.52;2.40;;;;;;;-145.18;100.00;60484.78;5038783;28;20025;-67
2022/05/23 10:29:00;;;;;;;5.72;2.30;;;;;;;-145.18;100.00;60484.78;5035518;28;20036;-68
2022/05/23 10:31:42;;;;;;;6.03;2.50;;;;;;;-145.18;100.00;60484.78;5038263;28;20365;-67
2022/05/23 10:34:14;;;;;;;8.75;2.30;;;;;;;-145.18;100.00;60484.78;5050572;28;20029;-67
2022/05/23 10:36:42;;;;;;;6.05;2.15;;;;;;;-145.18;100.00;60484.78;5040820;28;20139;-67
2022/05/23 10:42:24;;;;;;;5.15;2.10;;;;;;;-145.18;100.00;60484.78;5036698;28;20393;-67
2022/05/23 10:44:49;;;;;;;5.90;2.20;;;;;;;-145.18;100.00;60484.78;5032536;28;20367;-67
2022/05/23 10:47:34;;;;;;;6.88;1.80;;;;;;;-145.18;100.00;60484.78;5032423;28;20094;-68
2022/05/23 10:50:20;;;;;;;6.70;1.80;;;;;;;-145.18;100.00;60484.78;5033554;28;20512;-67
2022/05/23 10:53:23;;;;;;;5.03;1.95;;;;;;;-145.18;100.00;60484.78;5039441;28;20094;-68
2022/05/23 10:56:25;;;;;;;6.63;1.92;;;;;;;-145.18;100.00;60484.78;5042722;28;20017;-68
2022/05/23 10:59:08;;;;;;;6.95;2.20;;;;;;;-145.18;100.00;60484.78;5053697;28;20799;-68
2022/05/23 11:01:54;;;;;;;5.60;2.05;;;;;;;-145.18;100.00;60484.78;5052800;28;20025;-67
2022/05/23 11:04:40;;;;;;;4.25;2.13;;;;;;;-145.18;100.00;60484.78;5052921;28;20578;-68
2022/05/23 11:07:40;;;;;;;6.10;2.08;;;;;;;-145.18;100.00;60484.78;5051648;28;20485;-68
2022/05/23 11:10:17;;;;;;;3.78;2.00;;;;;;;-145.18;100.00;60484.78;5052246;28;20031;-68
2022/05/23 11:13:17;;;;;;;9.50;2.00;;;;;;;-145.18;100.00;60484.78;5052631;28;20047;-68
2022/05/23 11:15:57;;;;;;;4.82;1.80;;;;;;;-145.18;100.00;60484.78;5052375;28;20112;-68
2022/05/23 11:19:06;;;;;;;9.40;2.22;;;;;;;-145.18;100.00;60484.78;5052557;28;20033;-68
2022/05/23 11:21:41;;;;;;;6.75;1.90;;;;;;;-145.18;100.00;60484.78;5052266;28;20037;-68
2022/05/23 11:24:15;;;;;;;4.53;2.00;;;;;;;-145.18;100.00;60484.78;5051403;28;20032;-67
2022/05/23 11:26:53;;;;;;;6.45;2.08;;;;;;;-145.18;100.00;60484.78;5035944;28;20030;-68
2022/05/23 11:35:03;;;;;;;4.97;2.03;;;;;;;-145.18;100.00;60484.78;5051469;28;20039;-68
2022/05/23 11:37:45;;;;;;;4.75;1.70;;;;;;;-145.18;100.00;60484.78;5052067;28;20036;-68
2022/05/23 11:40:27;;;;;;;4.88;2.08;;;;;;;-145.18;100.00;60484.78;5049133;28;20515;-68
2022/05/23 11:42:59;;;;;;;6.70;2.03;;;;;;;-145.18;100.00;60484.78;5031918;28;20042;-68
2022/05/23 11:48:34;;;;;;;5.60;1.65;;;;;;;-145.18;100.00;60484.78;5031859;28;20106;-68
2022/05/23 11:51:29;;;;;;;6.68;1.60;;;;;;;-145.18;100.00;60484.78;5031716;28;20029;-68
2022/05/23 11:54:04;;;;;;;6.43;1.60;;;;;;;-145.18;100.00;60484.78;5031669;28;20025;-68
2022/05/23 11:56:40;;;;;;;4.50;2.00;;;;;;;-145.18;100.00;60484.78;5033016;28;20021;-68
2022/05/23 11:59:08;;;;;;;4.38;1.63;;;;;;;-145.18;100.00;60484.78;5042329;28;20040;-68
2022/05/23 12:01:35;;;;;;;5.47;1.80;;;;;;;-145.18;100.00;60484.78;5031739;28;20025;-68
2022/05/23 12:04:00;;;;;;;4.57;1.88;;;;;;;-145.18;100.00;60484.78;5031818;28;20078;-67
2022/05/23 12:06:28;;;;;;;4.20;1.80;;;;;;;-145.18;100.00;60484.78;5031529;28;20627;-68
2022/05/23 12:08:57;;;;;;;4.97;1.60;;;;;;;-145.18;100.00;60484.78;5031463;28;20033;-68
2022/05/23 12:11:27;;;;;;;7.53;2.00;;;;;;;-145.18;100.00;60484.78;5031587;28;20021;-68
2022/05/23 12:13:58;;;;;;;3.90;1.60;;;;;;;-145.18;100.00;60484.78;5032846;28;20347;-68
2022/05/23 12:16:29;;;;;;;5.38;1.48;;;;;;;-145.18;100.00;60484.78;5050983;28;20067;-68
2022/05/23 12:19:30;;;;;;;5.85;1.65;;;;;;;-145.18;100.00;60484.78;5051351;28;20462;-69
2022/05/23 12:22:26;;;;;;;7.90;1.92;;;;;;;-145.18;100.00;60484.78;5050946;28;20092;-68
2022/05/23 12:25:19;;;;;;;6.20;1.60;;;;;;;-145.18;100.00;60484.78;5051041;28;20531;-68
2022/05/23 12:27:44;;;;;;;5.40;1.40;;;;;;;-145.18;100.00;60484.78;5050822;28;20025;-68